Paarl, South Africa
Current Conditions -  °F | °C
As of 2:00 PM on Friday 24 Oct 2014 (Local Time) from FACT Reporting Station
Few Clouds Few Clouds  
Wind Chill: 75°   Ceiling: Unl
Heat Index: 75°   Visibility: 6mi
Dew Point: 57°   Wind: 25mph
Humidity: 53%   Direction: 180°S
Pressure: 30"   Gusts: NA
Location:  33.7°S, 18.96°E
Report Text: FACT 241200Z 18022KT 9999 FEW020 24/14 Q1016 NOSIG
Loading
Personal Weather Stations






























Interactive Weather Map
Tropical Storm Tracking
New forecast layout! Learn more

10-Day Weather Forecast

Advertisements
Track Severe Weather on mobile